Aviation Digital Data Service (ADDS)

Output produced by METARs form (0238 UTC 16 January 2019)
found at http://www.aviationweather.gov/metar/data/
 
KJAC 152320Z 1600/1624 VRB03KT 5SM -SHSN SCT020 OVC035 
     FM160100 VRB05KT P6SM VCSH SCT025 BKN040 
     FM161200 22006KT 5SM -SHSN SCT008 BKN015 
     FM161600 22010KT 2SM -SHSN SCT004 BKN010 AMD LTD TO CLD VIS AND WIND
       
KJAN 152323Z 1600/1624 00000KT P6SM BKN250 
     FM161400 20004KT P6SM SCT050
       
KJAX 152346Z 1600/1624 35003KT P6SM BKN035 
     FM161500 32005KT P6SM FEW030 SCT250
       
KJBR 160137Z 1602/1624 19006KT P6SM SCT017 
     FM161500 22006KT P6SM SCT020 
     FM162100 19008KT P6SM BKN025
       
KJFK 152339Z 1600/1706 VRB04KT P6SM FEW250 
     FM160500 25006KT P6SM FEW250 
     FM160900 25010KT P6SM FEW250 
     FM161000 25010KT P6SM FEW250 
     FM161500 26014G22KT P6SM BKN040 
     FM162100 26012KT P6SM BKN100 
     FM170100 31012KT P6SM SCT250
       
KJER 152343Z 1600/1624 04015G23KT P6SM BKN050 
     FM160300 05016KT P6SM SCT002 SCT035 
     FM161000 05014KT 3/4SM -SN BR OVC020 
     PROB30 1610/1613 -FZRA 
     FM161400 22007KT P6SM VCSH SCT020 BKN035 
     FM162100 VRB06KT P6SM -RA SCT020 OVC035
       
KJHW 152323Z 1600/1624 21010KT P6SM OVC015 
     FM160600 22012G21KT P6SM OVC012 
     FM160900 24012G24KT P6SM VCSH OVC012 
     FM161100 25013G24KT P6SM -SHSN OVC007 
     FM161300 26013G26KT 2SM -SN OVC007 
     FM161600 27013G25KT P6SM -SHSN OVC012 
     FM162100 31012G20KT P6SM BKN015
       
KJMS 152323Z 1600/1624 36014KT P6SM SCT025 
     FM160300 36011KT P6SM SCT250 
     FM161400 11010KT P6SM FEW250 
     FM161800 15009KT P6SM SCT230
       
KJST 152340Z 1600/1624 24008KT P6SM OVC012 
     FM160200 25010G20KT P6SM OVC006 
     TEMPO 1610/1614 1 1/2SM -SHSN OVC003 
     FM161500 27015G28KT 3SM -SHSN OVC012